Time;durP1;ratioP1;P1;durP2;ratioP2;P2;SDS_P1;SDS_P2;PMS_P1;PMS_P2;Temp;Humidity;BMP_temperature;BMP_pressure;BME280_temperature;BME280_humidity;BME280_pressure;Samples;Min_cycle;Max_cycle;Signal;HPM_P1;HPM_P2
2021/01/19 00:01:11;;;;;;;5.45;3.28;;;0.70;99.90;;;;;;5072916;28;20025;-73
2021/01/19 00:03:36;;;;;;;5.60;3.10;;;0.80;99.90;;;;;;5072693;28;20135;-71
2021/01/19 00:06:08;;;;;;;7.18;3.42;;;0.70;99.90;;;;;;5072969;28;20029;-72
2021/01/19 00:08:34;;;;;;;6.88;3.08;;;0.60;99.90;;;;;;5073540;28;20042;-70
2021/01/19 00:11:05;;;;;;;6.07;3.67;;;0.60;99.90;;;;;;5072577;28;20499;-71
2021/01/19 00:13:30;;;;;;;7.57;3.33;;;0.60;99.90;;;;;;5071729;28;20047;-71
2021/01/19 00:15:56;;;;;;;7.45;3.47;;;0.60;99.90;;;;;;5053677;28;20032;-71
2021/01/19 00:18:21;;;;;;;4.13;3.00;;;0.50;99.90;;;;;;5071914;28;20029;-72
2021/01/19 00:20:47;;;;;;;4.68;3.83;;;0.40;99.90;;;;;;5055073;28;20124;-71
2021/01/19 00:23:13;;;;;;;7.03;3.67;;;0.40;99.90;;;;;;5057174;28;20048;-72
2021/01/19 00:25:42;;;;;;;5.95;3.97;;;0.30;99.90;;;;;;5075698;28;20028;-71
2021/01/19 00:28:09;;;;;;;7.00;3.78;;;0.30;99.90;;;;;;5075786;28;20482;-72
2021/01/19 00:30:42;;;;;;;5.35;3.38;;;0.30;99.90;;;;;;5075750;28;20118;-71
2021/01/19 00:33:09;;;;;;;5.15;3.72;;;0.30;99.90;;;;;;5077561;28;20029;-71
2021/01/19 00:35:36;;;;;;;6.70;3.05;;;0.20;99.90;;;;;;5076957;28;20048;-70
2021/01/19 00:38:02;;;;;;;9.73;3.72;;;0.20;99.90;;;;;;5078151;28;20029;-72
2021/01/19 00:40:28;;;;;;;6.43;3.28;;;0.20;99.90;;;;;;5077323;28;20055;-71
2021/01/19 00:42:54;;;;;;;9.32;3.22;;;0.20;99.90;;;;;;5075183;28;20044;-72
2021/01/19 00:45:20;;;;;;;6.05;3.30;;;0.20;99.90;;;;;;5075355;28;20047;-70
2021/01/19 00:47:46;;;;;;;7.70;3.08;;;0.10;99.90;;;;;;5075735;28;20047;-72
2021/01/19 00:50:12;;;;;;;6.60;3.70;;;0.10;99.90;;;;;;5074385;28;20024;-72
2021/01/19 00:52:38;;;;;;;5.05;3.22;;;0.10;99.90;;;;;;5074545;28;20109;-70
2021/01/19 00:55:05;;;;;;;4.85;3.17;;;0.10;99.90;;;;;;5056908;28;20025;-71
2021/01/19 00:57:31;;;;;;;5.30;3.17;;;0.00;99.90;;;;;;5074594;28;20024;-71
2021/01/19 00:59:57;;;;;;;5.65;3.22;;;0.00;99.90;;;;;;5075209;28;20048;-71
2021/01/19 01:02:22;;;;;;;5.53;3.00;;;0.10;99.90;;;;;;5093143;28;20080;-72
2021/01/19 01:04:48;;;;;;;8.05;3.53;;;0.00;99.90;;;;;;5095070;28;20025;-70
2021/01/19 01:07:14;;;;;;;5.18;3.03;;;0.10;99.90;;;;;;5089219;28;20031;-71
2021/01/19 01:09:39;;;;;;;6.60;2.90;;;0.00;99.90;;;;;;5076466;28;20020;-70
2021/01/19 01:12:06;;;;;;;5.03;3.10;;;0.00;99.90;;;;;;5074423;28;20028;-71
2021/01/19 01:14:33;;;;;;;4.78;2.92;;;-0.10;99.90;;;;;;5073465;28;20166;-70
2021/01/19 01:16:59;;;;;;;6.10;3.10;;;-0.10;99.90;;;;;;5074461;28;20044;-72
2021/01/19 01:19:25;;;;;;;5.50;3.22;;;-0.10;99.90;;;;;;5074341;28;20071;-71
2021/01/19 01:21:50;;;;;;;10.00;3.15;;;-0.20;99.90;;;;;;5073748;28;20055;-70
2021/01/19 01:24:16;;;;;;;4.10;3.30;;;-0.20;99.90;;;;;;5073431;28;20025;-71
2021/01/19 01:26:42;;;;;;;4.00;3.25;;;-0.20;99.90;;;;;;5073879;28;20017;-70
2021/01/19 01:29:07;;;;;;;5.43;3.00;;;-0.20;99.90;;;;;;5074137;28;20437;-70
2021/01/19 01:31:36;;;;;;;6.68;3.08;;;-0.20;99.90;;;;;;5073670;28;20032;-71
2021/01/19 01:34:03;;;;;;;5.85;3.00;;;-0.10;99.90;;;;;;5073263;28;20013;-71
2021/01/19 01:36:29;;;;;;;11.07;3.60;;;-0.10;99.90;;;;;;5073354;28;20046;-71
2021/01/19 01:38:55;;;;;;;10.45;3.03;;;0.10;99.90;;;;;;5073951;28;20020;-71
2021/01/19 01:41:22;;;;;;;5.07;2.88;;;0.00;99.90;;;;;;5073533;28;20074;-70
2021/01/19 01:43:49;;;;;;;4.13;2.83;;;0.10;99.90;;;;;;5072138;28;20107;-71
2021/01/19 01:46:16;;;;;;;4.85;2.50;;;0.10;99.90;;;;;;5055602;28;20025;-71
2021/01/19 01:48:43;;;;;;;3.92;2.85;;;0.00;99.90;;;;;;5073602;28;20534;-71
2021/01/19 01:51:10;;;;;;;5.70;3.13;;;0.10;99.90;;;;;;5073243;28;20028;-71
2021/01/19 01:53:38;;;;;;;4.85;2.78;;;0.00;99.90;;;;;;5072769;28;20173;-70
2021/01/19 01:56:05;;;;;;;4.45;2.60;;;-0.10;99.90;;;;;;5072829;28;20028;-72
2021/01/19 01:58:32;;;;;;;7.53;2.90;;;-0.10;99.90;;;;;;5055280;28;20108;-72
2021/01/19 02:00:57;;;;;;;3.90;2.92;;;-0.10;99.90;;;;;;5072996;28;20099;-71
2021/01/19 02:03:23;;;;;;;5.20;3.17;;;-0.10;99.90;;;;;;5054524;28;20167;-71
2021/01/19 02:05:48;;;;;;;6.97;3.40;;;-0.10;99.90;;;;;;5072926;28;20036;-71
2021/01/19 02:08:17;;;;;;;5.25;3.78;;;-0.10;99.90;;;;;;5073341;28;20028;-70
2021/01/19 02:10:42;;;;;;;7.70;3.40;;;-0.10;99.90;;;;;;5054954;28;20032;-71
2021/01/19 02:13:39;;;;;;;5.45;3.75;;;-0.20;99.90;;;;;;5072531;28;20123;-70
2021/01/19 02:16:26;;;;;;;7.43;3.67;;;-0.30;99.90;;;;;;5053146;28;20529;-70
2021/01/19 02:19:19;;;;;;;4.30;3.45;;;-0.40;99.90;;;;;;5053114;28;20029;-71
2021/01/19 02:22:14;;;;;;;6.00;3.97;;;-0.40;99.90;;;;;;5059184;28;20099;-71
2021/01/19 02:24:59;;;;;;;8.35;3.90;;;-0.40;99.90;;;;;;5060068;28;20032;-70
2021/01/19 02:27:43;;;;;;;5.13;3.70;;;-0.50;99.90;;;;;;5061628;28;20036;-71
2021/01/19 02:30:18;;;;;;;6.15;4.15;;;-0.50;99.90;;;;;;5061370;28;20024;-70
2021/01/19 02:33:08;;;;;;;9.60;3.92;;;-0.60;99.90;;;;;;5040360;28;20025;-71
2021/01/19 02:35:53;;;;;;;7.70;3.95;;;-0.60;99.90;;;;;;5052711;28;20029;-70
2021/01/19 02:38:24;;;;;;;6.10;3.65;;;-0.60;99.90;;;;;;5052986;28;20025;-71
2021/01/19 02:40:54;;;;;;;7.10;4.00;;;-0.60;99.90;;;;;;5035088;28;20021;-72
2021/01/19 02:43:25;;;;;;;7.50;3.75;;;-0.60;99.90;;;;;;5051600;28;20024;-71
2021/01/19 02:45:55;;;;;;;6.00;3.97;;;-0.60;99.90;;;;;;5071793;28;20382;-71
2021/01/19 02:48:25;;;;;;;6.82;3.28;;;-0.60;99.90;;;;;;5072694;28;20410;-71
2021/01/19 02:50:51;;;;;;;7.03;3.53;;;-0.60;99.90;;;;;;5072141;28;20021;-70
2021/01/19 02:53:18;;;;;;;5.15;2.95;;;-0.60;99.90;;;;;;5054095;28;20107;-71
2021/01/19 02:55:45;;;;;;;5.75;3.63;;;-1.20;99.90;;;;;;5072755;28;20084;-72
2021/01/19 02:58:40;;;;;;;7.25;3.22;;;-0.40;99.90;;;;;;5072590;28;20021;-70
2021/01/19 03:01:19;;;;;;;10.05;3.92;;;-0.50;99.90;;;;;;5072438;28;20021;-71
2021/01/19 03:03:48;;;;;;;10.43;3.50;;;-0.50;99.90;;;;;;5053957;28;20031;-70
2021/01/19 03:06:17;;;;;;;6.60;3.35;;;-0.50;99.90;;;;;;5054442;28;20025;-72
2021/01/19 03:08:44;;;;;;;3.95;3.33;;;-0.50;99.90;;;;;;5072716;28;20020;-72
2021/01/19 03:11:18;;;;;;;4.65;3.03;;;-0.50;99.90;;;;;;5072087;28;20524;-71
2021/01/19 03:13:48;;;;;;;6.80;3.05;;;-0.50;99.90;;;;;;5071926;28;20020;-71
2021/01/19 03:16:15;;;;;;;5.78;3.70;;;-0.40;99.90;;;;;;5072059;28;20032;-72
2021/01/19 03:18:43;;;;;;;7.38;3.53;;;-0.40;99.90;;;;;;5072262;28;20032;-70
2021/01/19 03:21:09;;;;;;;8.23;3.53;;;-0.30;99.90;;;;;;5072424;28;20385;-71
2021/01/19 03:23:36;;;;;;;6.28;3.63;;;-0.30;99.90;;;;;;5071137;28;20043;-71
2021/01/19 03:26:03;;;;;;;6.88;4.00;;;-0.30;99.90;;;;;;5071751;28;20027;-70
2021/01/19 03:28:28;;;;;;;5.93;4.03;;;-0.30;99.90;;;;;;5071923;28;20021;-70
2021/01/19 03:30:55;;;;;;;7.55;3.97;;;-0.20;99.90;;;;;;5071641;28;20100;-71
2021/01/19 03:33:21;;;;;;;6.97;3.83;;;-0.10;99.90;;;;;;5071099;28;20414;-70
2021/01/19 03:35:47;;;;;;;9.45;4.30;;;-0.10;99.90;;;;;;5071760;28;20025;-70
2021/01/19 03:38:13;;;;;;;9.15;3.85;;;-0.10;99.90;;;;;;5071754;28;20023;-71
2021/01/19 03:40:40;;;;;;;9.13;4.07;;;-0.10;99.90;;;;;;5071915;28;20363;-70
2021/01/19 03:43:06;;;;;;;10.55;4.40;;;0.10;99.90;;;;;;5071059;28;20025;-71
2021/01/19 03:45:32;;;;;;;9.70;5.32;;;-0.10;99.90;;;;;;5071529;28;20506;-72
2021/01/19 03:47:58;;;;;;;7.28;4.47;;;0.00;99.90;;;;;;5071897;28;20021;-71
2021/01/19 03:50:24;;;;;;;10.32;4.97;;;-0.10;99.90;;;;;;5071807;28;20028;-71
2021/01/19 03:52:50;;;;;;;7.00;4.10;;;-0.10;99.90;;;;;;5071018;28;20024;-70
2021/01/19 03:55:16;;;;;;;8.40;4.20;;;0.00;99.90;;;;;;5071290;28;20031;-72
2021/01/19 03:57:42;;;;;;;6.55;4.15;;;0.00;99.90;;;;;;5075246;28;20027;-72
2021/01/19 04:00:10;;;;;;;6.15;4.22;;;0.00;99.90;;;;;;5075440;28;20041;-72
2021/01/19 04:02:35;;;;;;;10.68;3.80;;;0.10;99.90;;;;;;5075637;28;20024;-70
2021/01/19 04:05:02;;;;;;;6.90;4.35;;;0.10;99.90;;;;;;5074953;28;20043;-71
2021/01/19 04:07:28;;;;;;;4.82;3.90;;;0.10;99.90;;;;;;5088451;28;20017;-72
2021/01/19 04:09:54;;;;;;;7.63;4.10;;;0.20;99.90;;;;;;5091493;28;20072;-71
2021/01/19 04:12:20;;;;;;;5.35;4.07;;;0.20;99.90;;;;;;5091721;28;20062;-71
2021/01/19 04:14:45;;;;;;;6.68;3.85;;;0.20;99.90;;;;;;5088612;28;20103;-70
2021/01/19 04:17:11;;;;;;;7.70;3.60;;;0.30;99.90;;;;;;5079248;28;20440;-71
2021/01/19 04:19:36;;;;;;;8.52;4.18;;;0.40;99.90;;;;;;5079214;28;20028;-71
2021/01/19 04:22:02;;;;;;;10.00;4.20;;;0.30;99.90;;;;;;5079990;28;20078;-72
2021/01/19 04:24:28;;;;;;;5.65;3.25;;;0.40;99.90;;;;;;5081156;28;20021;-72
2021/01/19 04:26:53;;;;;;;4.32;3.60;;;0.40;99.90;;;;;;5081763;28;20021;-72
2021/01/19 04:29:19;;;;;;;6.53;3.75;;;0.40;99.90;;;;;;5079182;28;20390;-71
2021/01/19 04:31:45;;;;;;;5.22;3.20;;;0.40;99.90;;;;;;5079517;28;20033;-71
2021/01/19 04:34:10;;;;;;;6.63;3.47;;;0.40;99.90;;;;;;5074385;28;20036;-71
2021/01/19 04:36:36;;;;;;;4.57;3.55;;;0.40;99.90;;;;;;5074239;28;20052;-71
2021/01/19 04:39:02;;;;;;;4.95;3.50;;;0.50;99.90;;;;;;5074624;28;20367;-71
2021/01/19 04:41:28;;;;;;;6.38;3.50;;;0.50;99.90;;;;;;5074534;28;20395;-70
2021/01/19 04:43:55;;;;;;;8.68;3.47;;;0.50;99.90;;;;;;5073660;28;20024;-70
2021/01/19 04:46:21;;;;;;;6.95;4.03;;;0.40;99.90;;;;;;5074379;28;20031;-71
2021/01/19 04:48:48;;;;;;;3.97;3.40;;;0.50;99.90;;;;;;5074620;28;20028;-70
2021/01/19 04:51:21;;;;;;;5.95;2.95;;;0.50;99.90;;;;;;5074269;28;20520;-70
2021/01/19 04:54:03;;;;;;;6.00;3.50;;;0.50;99.90;;;;;;5073730;28;20025;-71
2021/01/19 04:56:29;;;;;;;5.40;3.63;;;0.50;99.90;;;;;;5074318;28;20119;-72
2021/01/19 04:58:56;;;;;;;8.27;3.47;;;0.50;99.90;;;;;;5073662;28;20020;-72
2021/01/19 05:01:39;;;;;;;4.50;3.22;;;0.50;99.90;;;;;;5101678;22;20040;-66
2021/01/19 05:04:27;;;;;;;4.95;3.45;;;0.40;99.90;;;;;;5089423;28;20020;-67
2021/01/19 05:07:15;;;;;;;5.00;3.72;;;0.30;99.90;;;;;;5084059;28;20082;-66
2021/01/19 05:10:01;;;;;;;9.40;4.30;;;0.30;99.90;;;;;;5094021;28;20020;-66
2021/01/19 05:12:39;;;;;;;6.10;3.67;;;0.30;99.90;;;;;;5094205;28;20458;-66
2021/01/19 05:15:12;;;;;;;4.70;3.33;;;0.20;99.90;;;;;;5092922;28;20499;-66
2021/01/19 05:17:39;;;;;;;9.25;3.53;;;0.10;99.90;;;;;;5093692;28;20519;-66
2021/01/19 05:20:07;;;;;;;8.52;3.75;;;0.10;99.90;;;;;;5092648;28;20492;-65
2021/01/19 05:22:33;;;;;;;7.38;3.90;;;0.10;99.90;;;;;;5093689;28;20553;-67
2021/01/19 05:24:59;;;;;;;5.35;3.60;;;0.00;99.90;;;;;;5058207;28;20060;-66
2021/01/19 05:27:24;;;;;;;5.43;3.20;;;0.00;99.90;;;;;;5093880;28;20028;-66
2021/01/19 05:30:07;;;;;;;5.57;3.38;;;0.00;99.90;;;;;;5092395;28;20031;-66
2021/01/19 05:32:40;;;;;;;6.53;2.92;;;-0.10;99.90;;;;;;5076339;28;20073;-66
2021/01/19 05:35:20;;;;;;;6.75;3.10;;;-0.10;99.90;;;;;;5094248;28;20039;-65
2021/01/19 05:37:58;;;;;;;5.25;3.35;;;0.00;99.90;;;;;;5094078;28;20371;-65
2021/01/19 05:40:30;;;;;;;5.85;3.40;;;-0.10;99.90;;;;;;5092916;28;20027;-67
2021/01/19 05:42:56;;;;;;;8.82;3.30;;;-0.10;99.90;;;;;;5093459;28;20170;-67
2021/01/19 05:45:22;;;;;;;6.75;3.55;;;0.00;99.90;;;;;;5075621;28;20111;-67
2021/01/19 05:47:48;;;;;;;7.80;3.78;;;0.00;99.90;;;;;;5071533;28;20390;-67
2021/01/19 05:50:15;;;;;;;6.30;3.50;;;0.00;99.90;;;;;;5064356;28;20021;-68
2021/01/19 05:52:44;;;;;;;5.20;3.65;;;0.00;99.90;;;;;;5060932;28;20025;-67
2021/01/19 05:55:10;;;;;;;5.68;4.00;;;-0.10;99.90;;;;;;5078963;28;20099;-68
2021/01/19 05:57:36;;;;;;;4.93;3.42;;;-0.10;99.90;;;;;;5092619;28;20050;-66
2021/01/19 06:00:05;;;;;;;5.47;3.40;;;-0.10;99.90;;;;;;5092948;28;20024;-66
2021/01/19 06:02:40;;;;;;;5.13;3.60;;;0.00;99.90;;;;;;5082156;28;20044;-66
2021/01/19 06:05:11;;;;;;;5.15;4.05;;;0.00;99.90;;;;;;5075307;28;20036;-66
2021/01/19 06:07:44;;;;;;;8.88;4.00;;;0.00;99.90;;;;;;5074962;28;20017;-66
2021/01/19 06:10:12;;;;;;;5.05;3.30;;;0.00;99.90;;;;;;5081937;28;20016;-66
2021/01/19 06:12:38;;;;;;;5.13;3.63;;;0.10;99.90;;;;;;5078028;28;20028;-66
2021/01/19 06:15:05;;;;;;;4.82;3.50;;;0.00;99.90;;;;;;5072420;28;20024;-66
2021/01/19 06:17:31;;;;;;;7.78;4.00;;;0.00;99.90;;;;;;5071766;28;20121;-66
2021/01/19 06:20:01;;;;;;;7.03;3.80;;;0.00;99.90;;;;;;5071852;28;20132;-66
2021/01/19 06:22:28;;;;;;;7.10;3.88;;;0.00;99.90;;;;;;5060955;28;20025;-71
2021/01/19 06:24:58;;;;;;;5.32;3.97;;;0.10;99.90;;;;;;5083216;28;20016;-71
2021/01/19 06:27:23;;;;;;;4.65;4.03;;;0.40;99.90;;;;;;5064730;28;20025;-73
2021/01/19 06:30:13;;;;;;;8.05;4.65;;;0.40;99.90;;;;;;5056110;28;20047;-72
2021/01/19 06:32:38;;;;;;;7.45;4.22;;;0.30;99.90;;;;;;5054023;28;20048;-68
2021/01/19 06:35:11;;;;;;;6.35;3.67;;;0.30;99.90;;;;;;5053036;28;20110;-67
2021/01/19 06:37:37;;;;;;;4.25;3.60;;;0.30;99.90;;;;;;5052841;28;20127;-68
2021/01/19 06:40:06;;;;;;;7.55;4.25;;;0.10;99.90;;;;;;5061133;28;20104;-66
2021/01/19 06:42:33;;;;;;;5.75;3.83;;;0.00;99.90;;;;;;5071738;28;20035;-67
2021/01/19 06:45:00;;;;;;;6.45;3.80;;;0.00;99.90;;;;;;5071678;28;20082;-67
2021/01/19 06:47:27;;;;;;;5.30;4.10;;;-0.10;99.90;;;;;;5071690;28;20032;-68
2021/01/19 06:49:53;;;;;;;8.15;3.78;;;-0.20;99.90;;;;;;5071947;28;20025;-67
2021/01/19 06:52:21;;;;;;;7.20;3.80;;;-0.30;99.90;;;;;;5071857;28;20017;-67
2021/01/19 06:54:53;;;;;;;11.95;6.90;;;-0.30;99.90;;;;;;5081050;28;20050;-68
2021/01/19 06:58:14;;;;;;;15.15;7.88;;;-0.30;99.90;;;;;;5092782;28;20102;-68
2021/01/19 07:00:41;;;;;;;12.57;5.68;;;-0.30;99.90;;;;;;5048634;28;20099;-68
2021/01/19 07:03:22;;;;;;;12.23;6.93;;;-0.40;99.90;;;;;;5091953;28;20422;-67
2021/01/19 07:05:53;;;;;;;8.77;5.70;;;-0.40;99.90;;;;;;5092056;28;20024;-67
2021/01/19 07:08:19;;;;;;;9.53;5.60;;;-0.40;99.90;;;;;;5091951;28;20027;-67
2021/01/19 07:11:05;;;;;;;7.97;4.15;;;-0.40;99.90;;;;;;5091883;28;20034;-69
2021/01/19 07:13:37;;;;;;;8.70;4.88;;;-0.30;99.90;;;;;;5073079;28;20024;-67
2021/01/19 07:16:10;;;;;;;9.43;4.32;;;-0.40;99.90;;;;;;5091589;28;20055;-70
2021/01/19 07:18:50;;;;;;;10.48;4.25;;;-0.30;99.90;;;;;;5091734;28;20055;-70
2021/01/19 07:21:17;;;;;;;7.47;4.55;;;-0.40;99.90;;;;;;5061777;28;20039;-72
2021/01/19 07:23:48;;;;;;;5.20;4.13;;;-0.20;99.90;;;;;;5078141;28;20024;-71
2021/01/19 07:26:31;;;;;;;7.20;4.40;;;-0.30;99.90;;;;;;5071365;28;20032;-70
2021/01/19 07:28:57;;;;;;;11.18;5.13;;;-0.30;99.90;;;;;;5071132;28;20025;-71
2021/01/19 07:31:23;;;;;;;6.07;4.50;;;-0.30;99.90;;;;;;5071556;28;20024;-71
2021/01/19 07:33:55;;;;;;;6.47;4.70;;;-0.20;99.90;;;;;;5070559;28;20466;-71
2021/01/19 07:36:22;;;;;;;7.50;4.68;;;-0.20;99.90;;;;;;5071150;28;20474;-71
2021/01/19 07:38:49;;;;;;;9.50;5.45;;;-0.20;99.90;;;;;;5070993;28;20064;-70
2021/01/19 07:41:26;;;;;;;8.30;5.57;;;-0.10;99.90;;;;;;5053214;28;20112;-71
2021/01/19 07:43:52;;;;;;;8.70;5.25;;;0.00;99.90;;;;;;5056503;28;20044;-71
2021/01/19 07:46:27;;;;;;;9.93;5.13;;;0.10;99.90;;;;;;5052998;28;20052;-71
2021/01/19 07:49:06;;;;;;;8.30;4.97;;;0.40;99.90;;;;;;5071092;28;20066;-70
2021/01/19 07:51:45;;;;;;;7.22;5.25;;;0.60;99.90;;;;;;5071158;28;20389;-71
2021/01/19 07:54:13;;;;;;;9.18;5.30;;;0.90;99.90;;;;;;5086818;28;20047;-70
2021/01/19 07:56:40;;;;;;;11.18;5.10;;;1.60;99.90;;;;;;5091402;28;20027;-71
2021/01/19 07:59:17;;;;;;;8.85;5.63;;;2.40;99.90;;;;;;5091421;28;20112;-69
2021/01/19 08:01:59;;;;;;;7.78;4.80;;;3.50;99.90;;;;;;5084516;28;20072;-71
2021/01/19 08:04:38;;;;;;;5.72;4.75;;;4.00;99.90;;;;;;5070393;28;20021;-69
2021/01/19 08:07:15;;;;;;;7.47;4.72;;;3.60;99.90;;;;;;5070685;28;20032;-69
2021/01/19 08:09:41;;;;;;;12.32;4.75;;;4.10;99.90;;;;;;5070912;28;20024;-74
2021/01/19 08:12:11;;;;;;;10.95;5.32;;;4.20;99.90;;;;;;5067958;28;20025;-71
2021/01/19 08:14:40;;;;;;;8.35;4.75;;;3.90;99.90;;;;;;5069944;28;20029;-72
2021/01/19 08:17:08;;;;;;;6.75;5.47;;;4.20;99.90;;;;;;5070692;28;20075;-70
2021/01/19 08:19:38;;;;;;;8.35;5.60;;;4.60;99.90;;;;;;5068188;28;20463;-68
2021/01/19 08:22:04;;;;;;;7.93;5.80;;;4.70;99.90;;;;;;5070594;28;20471;-69
2021/01/19 08:24:30;;;;;;;9.18;5.40;;;4.80;99.90;;;;;;5089443;28;20027;-71
2021/01/19 08:26:57;;;;;;;8.07;4.80;;;5.10;99.90;;;;;;5091287;28;20032;-70
2021/01/19 08:29:24;;;;;;;8.23;5.40;;;5.90;99.90;;;;;;5089609;28;20020;-73
2021/01/19 08:31:56;;;;;;;8.80;5.35;;;6.20;99.90;;;;;;5089028;28;20050;-70
2021/01/19 08:34:22;;;;;;;6.45;4.75;;;6.90;99.90;;;;;;5071155;28;20024;-70
2021/01/19 08:36:49;;;;;;;11.88;5.35;;;6.90;99.90;;;;;;5090161;28;20020;-68
2021/01/19 08:39:16;;;;;;;6.13;4.80;;;7.10;99.90;;;;;;5075142;28;20020;-72
2021/01/19 08:41:47;;;;;;;9.98;4.72;;;7.80;99.90;;;;;;5071768;28;20017;-69
2021/01/19 08:44:14;;;;;;;6.15;4.85;;;6.70;99.90;;;;;;5073012;28;20111;-71
2021/01/19 08:46:40;;;;;;;9.45;5.57;;;6.90;99.90;;;;;;5073896;28;20533;-69
2021/01/19 08:49:14;;;;;;;8.63;5.57;;;6.20;99.90;;;;;;5072568;28;20029;-71
2021/01/19 08:51:47;;;;;;;7.82;5.50;;;5.50;99.90;;;;;;5073421;28;20055;-70
2021/01/19 08:54:13;;;;;;;8.13;6.40;;;4.50;99.90;;;;;;5072190;28;20031;-71
2021/01/19 08:56:41;;;;;;;10.65;6.75;;;3.90;99.90;;;;;;5055299;28;20490;-70
2021/01/19 08:59:10;;;;;;;10.75;5.95;;;3.90;99.90;;;;;;5073320;28;20451;-71
2021/01/19 09:01:53;;;;;;;9.85;6.43;;;3.90;99.90;;;;;;5072982;28;20043;-70
2021/01/19 09:04:29;;;;;;;12.57;5.65;;;3.70;99.90;;;;;;5072323;28;20016;-69
2021/01/19 09:07:10;;;;;;;10.82;7.05;;;3.60;99.90;;;;;;5072791;28;20021;-70
2021/01/19 09:09:35;;;;;;;10.27;6.97;;;3.50;99.90;;;;;;5072903;28;20044;-72
2021/01/19 09:12:01;;;;;;;12.43;7.95;;;3.40;99.90;;;;;;5072724;28;20047;-69
2021/01/19 09:14:28;;;;;;;9.95;5.15;;;3.30;99.90;;;;;;5072572;28;20033;-67
2021/01/19 09:16:55;;;;;;;5.18;4.28;;;3.00;99.90;;;;;;5073344;28;20103;-67
2021/01/19 09:19:21;;;;;;;8.30;4.32;;;2.70;99.90;;;;;;5074194;28;20548;-67
2021/01/19 09:21:47;;;;;;;9.00;5.13;;;2.70;99.90;;;;;;5074367;28;20040;-71
2021/01/19 09:24:21;;;;;;;9.77;5.03;;;2.90;99.90;;;;;;5089855;28;20045;-71
2021/01/19 09:27:01;;;;;;;8.45;5.30;;;3.00;99.90;;;;;;5094176;28;20024;-69
2021/01/19 09:29:27;;;;;;;12.07;5.93;;;3.00;99.90;;;;;;5075909;28;20024;-70
2021/01/19 09:31:54;;;;;;;10.40;4.85;;;2.90;99.90;;;;;;5093909;28;20027;-72
2021/01/19 09:34:20;;;;;;;8.35;4.75;;;2.70;99.90;;;;;;5094334;28;20031;-68
2021/01/19 09:36:48;;;;;;;10.73;5.18;;;2.80;99.90;;;;;;5094955;28;20525;-69
2021/01/19 09:39:35;;;;;;;7.70;4.57;;;2.80;99.90;;;;;;5078940;28;20486;-69
2021/01/19 09:42:04;;;;;;;11.80;5.32;;;3.60;99.90;;;;;;5073109;28;20037;-69
2021/01/19 09:44:31;;;;;;;8.77;5.20;;;3.80;99.90;;;;;;5072740;28;20600;-69
2021/01/19 09:47:05;;;;;;;9.43;4.90;;;3.70;99.90;;;;;;5075454;28;20032;-75
2021/01/19 09:49:33;;;;;;;9.75;5.55;;;3.50;99.90;;;;;;5055383;28;20466;-73
2021/01/19 09:52:12;;;;;;;8.90;5.53;;;3.40;99.90;;;;;;5072692;28;20035;-70
2021/01/19 09:54:39;;;;;;;6.50;4.50;;;3.30;99.90;;;;;;5033174;28;20339;-76
2021/01/19 09:57:07;;;;;;;7.88;5.35;;;3.30;99.90;;;;;;5050918;28;20044;-73
2021/01/19 09:59:33;;;;;;;9.52;5.53;;;3.30;99.90;;;;;;5053422;28;20021;-73
2021/01/19 10:02:00;;;;;;;6.75;4.93;;;3.30;99.90;;;;;;5054476;28;20039;-74
2021/01/19 10:04:27;;;;;;;12.35;6.00;;;3.50;99.90;;;;;;5053683;28;20032;-73
2021/01/19 10:07:06;;;;;;;12.85;5.22;;;3.40;99.90;;;;;;5053528;28;20020;-73
2021/01/19 10:09:33;;;;;;;11.32;5.70;;;3.50;99.90;;;;;;5053173;28;20029;-75
2021/01/19 10:12:03;;;;;;;10.70;5.55;;;3.60;99.90;;;;;;5052968;28;20154;-73
2021/01/19 10:14:37;;;;;;;11.63;5.63;;;3.50;99.90;;;;;;5053635;28;20029;-75
2021/01/19 10:17:03;;;;;;;10.68;5.60;;;3.60;99.90;;;;;;5034734;28;20036;-71
2021/01/19 10:19:32;;;;;;;11.75;5.63;;;3.70;99.90;;;;;;5052852;28;20024;-75
2021/01/19 10:22:09;;;;;;;10.05;5.22;;;3.60;99.90;;;;;;5052705;28;20028;-71
2021/01/19 10:24:36;;;;;;;13.57;5.32;;;3.60;99.90;;;;;;5033780;28;20483;-73
2021/01/19 10:27:07;;;;;;;6.45;4.68;;;3.50;99.90;;;;;;5052001;28;20535;-75
2021/01/19 10:29:41;;;;;;;4.50;3.63;;;3.60;99.90;;;;;;5052505;28;20020;-73
2021/01/19 10:32:12;;;;;;;11.57;5.10;;;3.70;99.90;;;;;;5052399;28;20259;-73
2021/01/19 10:34:42;;;;;;;12.00;4.97;;;3.70;99.90;;;;;;5052162;28;20458;-74
2021/01/19 10:37:10;;;;;;;11.60;4.30;;;3.70;99.90;;;;;;5035559;28;20068;-73
2021/01/19 10:39:50;;;;;;;4.80;3.67;;;3.70;99.90;;;;;;5070494;28;20021;-74
2021/01/19 10:42:26;;;;;;;7.38;4.10;;;3.90;99.90;;;;;;5072746;28;20059;-72
2021/01/19 10:44:56;;;;;;;6.47;4.05;;;4.10;99.90;;;;;;5054221;28;20636;-71
2021/01/19 10:47:22;;;;;;;7.13;4.03;;;4.30;99.90;;;;;;5072111;28;20020;-73
2021/01/19 10:49:47;;;;;;;7.88;4.03;;;4.10;99.90;;;;;;5072081;28;20386;-73
2021/01/19 10:52:13;;;;;;;7.35;4.15;;;4.10;99.90;;;;;;5072944;28;20488;-75
2021/01/19 10:54:39;;;;;;;8.73;4.07;;;4.10;99.90;;;;;;5073269;28;20028;-74
2021/01/19 10:57:07;;;;;;;5.38;3.20;;;4.20;99.90;;;;;;5092943;28;20086;-73
2021/01/19 10:59:34;;;;;;;6.63;3.50;;;4.30;99.90;;;;;;5092460;28;20107;-74
2021/01/19 11:02:00;;;;;;;7.32;3.72;;;4.40;99.90;;;;;;5091606;28;20331;-71
2021/01/19 11:04:26;;;;;;;5.35;4.05;;;4.50;99.90;;;;;;5091155;28;20028;-73
2021/01/19 11:06:52;;;;;;;8.07;3.90;;;4.60;99.90;;;;;;5091592;28;20030;-73
2021/01/19 11:09:18;;;;;;;6.18;3.67;;;4.70;99.90;;;;;;5091704;28;20466;-73
2021/01/19 11:11:44;;;;;;;6.15;3.50;;;4.40;99.90;;;;;;5092160;28;20020;-72
2021/01/19 11:14:10;;;;;;;7.95;3.78;;;4.60;99.90;;;;;;5091448;28;20027;-73
2021/01/19 11:16:41;;;;;;;8.02;4.18;;;4.50;99.90;;;;;;5092207;28;20020;-75
2021/01/19 11:19:09;;;;;;;8.80;4.13;;;4.50;99.90;;;;;;5092454;28;20032;-73
2021/01/19 11:21:36;;;;;;;7.68;3.75;;;4.40;99.90;;;;;;5092167;28;20016;-69
2021/01/19 11:24:03;;;;;;;5.15;3.42;;;4.50;99.90;;;;;;5071919;28;20024;-69
2021/01/19 11:26:29;;;;;;;4.95;3.85;;;4.30;99.90;;;;;;5091761;28;20370;-70
2021/01/19 11:28:56;;;;;;;8.07;4.38;;;4.50;99.90;;;;;;5091918;28;20091;-71
2021/01/19 11:31:26;;;;;;;7.40;4.25;;;4.40;99.90;;;;;;5091961;28;20028;-73
2021/01/19 11:33:56;;;;;;;7.70;3.58;;;4.50;99.90;;;;;;5091852;28;20458;-72
2021/01/19 11:36:27;;;;;;;5.32;3.90;;;4.70;99.90;;;;;;5091914;28;20053;-72
2021/01/19 11:38:56;;;;;;;8.67;4.33;;;4.50;99.90;;;;;;5079968;28;20024;-73
2021/01/19 11:41:24;;;;;;;7.68;4.00;;;4.60;99.90;;;;;;5070568;28;20512;-74
2021/01/19 11:43:50;;;;;;;5.05;3.92;;;4.60;99.90;;;;;;5070966;28;20115;-73
2021/01/19 11:46:25;;;;;;;6.60;3.55;;;4.60;99.90;;;;;;5070987;28;20627;-71
2021/01/19 11:48:52;;;;;;;8.68;4.05;;;4.70;99.90;;;;;;5071275;28;20020;-73
2021/01/19 11:51:19;;;;;;;6.50;3.45;;;4.60;99.90;;;;;;5071496;28;20016;-72
2021/01/19 11:53:56;;;;;;;8.40;4.10;;;4.50;99.90;;;;;;5070518;28;20028;-72
2021/01/19 11:56:38;;;;;;;7.45;4.00;;;4.50;99.90;;;;;;5071433;28;20024;-71
2021/01/19 11:59:04;;;;;;;10.10;4.75;;;4.60;99.90;;;;;;5071562;28;20028;-72
2021/01/19 12:01:30;;;;;;;7.53;3.38;;;4.60;99.90;;;;;;5071016;28;20368;-73
2021/01/19 12:03:56;;;;;;;13.90;4.90;;;4.60;99.90;;;;;;5052689;28;20035;-71
2021/01/19 12:06:22;;;;;;;3.92;3.13;;;4.80;99.90;;;;;;5071051;28;20099;-71
2021/01/19 12:08:49;;;;;;;10.25;4.22;;;4.80;99.90;;;;;;5070900;28;20039;-72
2021/01/19 12:11:15;;;;;;;5.20;3.42;;;4.70;99.90;;;;;;5071221;28;20099;-72
2021/01/19 12:13:42;;;;;;;4.45;3.38;;;4.80;99.90;;;;;;5070535;28;20025;-74
2021/01/19 12:16:09;;;;;;;7.57;3.50;;;4.60;99.90;;;;;;5071645;28;20028;-71
2021/01/19 12:18:35;;;;;;;3.33;2.92;;;4.70;99.90;;;;;;5075305;28;20056;-73
2021/01/19 12:21:02;;;;;;;3.78;3.20;;;4.70;99.90;;;;;;5075227;28;20024;-73
2021/01/19 12:23:28;;;;;;;6.65;3.85;;;4.80;99.90;;;;;;5083866;28;20086;-73
2021/01/19 12:25:58;;;;;;;6.72;3.58;;;5.00;99.90;;;;;;5095422;28;20424;-72
2021/01/19 12:28:24;;;;;;;5.32;3.13;;;5.00;99.90;;;;;;5095656;28;20020;-73
2021/01/19 12:30:50;;;;;;;9.45;3.58;;;5.00;99.90;;;;;;5095392;28;20055;-71
2021/01/19 12:33:16;;;;;;;5.90;3.10;;;5.10;99.90;;;;;;5094470;28;20020;-71
2021/01/19 12:35:42;;;;;;;5.13;3.30;;;5.00;99.90;;;;;;5095107;28;20028;-73
2021/01/19 12:38:07;;;;;;;6.13;3.47;;;4.90;99.90;;;;;;5089965;28;20093;-71
2021/01/19 12:40:33;;;;;;;6.57;3.00;;;4.90;99.90;;;;;;5074244;28;20526;-70
2021/01/19 12:42:59;;;;;;;6.45;3.33;;;4.90;99.90;;;;;;5074072;28;20063;-69
2021/01/19 12:45:24;;;;;;;4.43;2.83;;;4.80;99.90;;;;;;5077291;28;20544;-67
2021/01/19 12:47:51;;;;;;;5.90;2.97;;;5.00;99.90;;;;;;5074730;28;20031;-67
2021/01/19 12:50:17;;;;;;;4.80;3.10;;;6.00;99.90;;;;;;5056513;28;20206;-70
2021/01/19 12:52:43;;;;;;;3.83;3.10;;;6.90;99.90;;;;;;5076709;28;20016;-66
2021/01/19 12:55:09;;;;;;;4.35;3.10;;;5.70;99.90;;;;;;5094068;28;20417;-70
2021/01/19 12:57:35;;;;;;;4.00;3.22;;;5.40;99.90;;;;;;5091643;28;20499;-71
2021/01/19 13:00:01;;;;;;;4.53;3.05;;;5.00;99.90;;;;;;5053888;28;20033;-72
2021/01/19 13:02:27;;;;;;;5.15;3.10;;;5.00;99.90;;;;;;5054171;28;20056;-70
2021/01/19 13:04:53;;;;;;;5.20;3.20;;;4.80;99.90;;;;;;5035128;28;20471;-71